Time;durP1;ratioP1;P1;durP2;ratioP2;P2;SDS_P1;SDS_P2;PMS_P1;PMS_P2;Temp;Humidity;BMP_temperature;BMP_pressure;BME280_temperature;BME280_humidity;BME280_pressure;Samples;Min_cycle;Max_cycle;Signal;HPM_P1;HPM_P2
2024/02/27 00:02:06;;;;;;;1.60;1.20;;;7.00;98.20;;;;;;4868255;29;20488;-81
2024/02/27 00:04:34;;;;;;;1.60;1.20;;;7.00;98.20;;;;;;4866370;29;20471;-80
2024/02/27 00:07:01;;;;;;;1.60;1.33;;;7.00;98.20;;;;;;4854646;29;20490;-80
2024/02/27 00:09:28;;;;;;;1.60;1.33;;;7.00;98.20;;;;;;4866075;29;20486;-80
2024/02/27 00:11:55;;;;;;;1.93;1.73;;;7.00;98.20;;;;;;4860452;29;20481;-80
2024/02/27 00:14:22;;;;;;;1.60;1.20;;;6.90;98.20;;;;;;4862636;29;20578;-80
2024/02/27 00:16:49;;;;;;;1.60;1.40;;;6.90;98.20;;;;;;4853881;29;20483;-80
2024/02/27 00:19:17;;;;;;;1.60;1.20;;;6.90;98.20;;;;;;4864682;29;20573;-80
2024/02/27 00:21:44;;;;;;;1.60;1.30;;;6.90;98.20;;;;;;4862547;29;20493;-80
2024/02/27 00:24:10;;;;;;;1.60;1.20;;;6.90;98.20;;;;;;4877091;29;20478;-80
2024/02/27 00:26:37;;;;;;;1.60;1.30;;;6.90;98.20;;;;;;4851900;29;20493;-80
2024/02/27 00:29:04;;;;;;;1.60;1.40;;;6.90;98.20;;;;;;4868073;29;20491;-80
2024/02/27 00:31:31;;;;;;;1.60;1.20;;;6.90;98.20;;;;;;4851629;29;20497;-80
2024/02/27 00:33:57;;;;;;;1.60;1.30;;;6.90;98.20;;;;;;4870031;29;20474;-79
2024/02/27 00:36:25;;;;;;;1.60;1.30;;;6.90;98.20;;;;;;4852693;29;20482;-80
2024/02/27 00:38:53;;;;;;;1.60;1.20;;;6.90;98.20;;;;;;4869512;29;20491;-80
2024/02/27 00:41:20;;;;;;;1.60;1.20;;;6.90;98.20;;;;;;4853711;29;20486;-80
2024/02/27 00:43:46;;;;;;;1.60;1.30;;;6.90;98.20;;;;;;4871203;29;20558;-80
2024/02/27 00:46:13;;;;;;;1.60;1.20;;;6.90;98.20;;;;;;4850671;29;20486;-80
2024/02/27 00:48:40;;;;;;;1.60;1.30;;;6.90;98.20;;;;;;4867755;29;20902;-80
2024/02/27 00:51:07;;;;;;;1.60;1.30;;;6.90;98.20;;;;;;4848948;29;20934;-80
2024/02/27 00:53:35;;;;;;;1.60;1.30;;;6.90;98.20;;;;;;4878278;29;20838;-80
2024/02/27 00:56:02;;;;;;;1.60;1.20;;;6.90;98.20;;;;;;4847690;29;20474;-80
2024/02/27 00:58:29;;;;;;;2.47;2.27;;;6.90;98.20;;;;;;4871894;29;20573;-80
2024/02/27 01:00:56;;;;;;;1.70;1.60;;;6.90;98.20;;;;;;4847268;29;20475;-80
2024/02/27 01:03:22;;;;;;;1.60;1.30;;;6.90;98.20;;;;;;4874611;29;20492;-80
2024/02/27 01:05:49;;;;;;;1.60;1.40;;;6.90;98.20;;;;;;4846542;29;20471;-80
2024/02/27 01:08:16;;;;;;;1.60;1.30;;;6.90;98.20;;;;;;4872779;29;20501;-80
2024/02/27 01:10:44;;;;;;;1.60;1.20;;;6.90;98.20;;;;;;4857995;29;20475;-81
2024/02/27 01:13:11;;;;;;;1.60;1.20;;;6.90;98.20;;;;;;4866157;29;20986;-81
2024/02/27 01:15:38;;;;;;;1.60;1.20;;;6.90;98.20;;;;;;4858952;29;20472;-80
2024/02/27 01:18:06;;;;;;;1.60;1.30;;;6.90;98.20;;;;;;4867915;29;20595;-80
2024/02/27 01:20:32;;;;;;;1.60;1.30;;;6.90;98.20;;;;;;4855166;29;20479;-80
2024/02/27 01:22:59;;;;;;;1.60;1.30;;;6.80;98.20;;;;;;4866371;29;20482;-80
2024/02/27 01:25:26;;;;;;;1.83;1.63;;;6.80;98.20;;;;;;4856334;29;20480;-80
2024/02/27 01:27:54;;;;;;;1.60;1.50;;;6.90;98.20;;;;;;4865903;29;20653;-80
2024/02/27 01:30:21;;;;;;;1.60;1.30;;;6.80;98.20;;;;;;4857227;29;20489;-81
2024/02/27 01:32:48;;;;;;;1.60;1.20;;;6.80;98.20;;;;;;4876228;29;20480;-81
2024/02/27 01:35:18;;;;;;;1.60;1.20;;;6.80;98.20;;;;;;4857897;29;21199;-81
2024/02/27 01:37:45;;;;;;;3.50;3.00;;;6.80;98.20;;;;;;4866044;29;20494;-81
2024/02/27 01:40:12;;;;;;;1.60;1.27;;;6.80;98.20;;;;;;4857753;29;20484;-80
2024/02/27 01:42:39;;;;;;;1.60;1.30;;;6.80;98.20;;;;;;4866642;29;20485;-80
2024/02/27 01:45:09;;;;;;;1.60;1.20;;;6.80;98.20;;;;;;4858439;29;20845;-80
2024/02/27 01:47:36;;;;;;;1.60;1.30;;;6.80;98.20;;;;;;4864265;29;20485;-80
2024/02/27 01:50:04;;;;;;;1.60;1.30;;;6.80;98.20;;;;;;4863079;29;20910;-80
2024/02/27 01:52:31;;;;;;;1.57;1.30;;;6.80;98.20;;;;;;4866430;29;20477;-80
2024/02/27 01:54:58;;;;;;;1.60;1.30;;;6.80;98.20;;;;;;4859582;29;20478;-80
2024/02/27 01:57:25;;;;;;;1.60;1.30;;;6.80;98.20;;;;;;4861889;29;20482;-80
2024/02/27 01:59:52;;;;;;;1.53;1.20;;;6.80;98.20;;;;;;4863188;29;20481;-80
2024/02/27 02:02:20;;;;;;;1.60;1.20;;;6.80;98.20;;;;;;4865633;29;20493;-80
2024/02/27 02:04:47;;;;;;;1.60;1.30;;;6.80;98.20;;;;;;4864386;29;20475;-79
2024/02/27 02:07:15;;;;;;;1.60;1.30;;;6.80;98.20;;;;;;4870638;29;20489;-79
2024/02/27 02:09:41;;;;;;;1.60;1.30;;;6.80;98.20;;;;;;4865818;29;20558;-79
2024/02/27 02:12:08;;;;;;;1.60;1.40;;;6.80;98.20;;;;;;4858995;29;20477;-80
2024/02/27 02:14:35;;;;;;;1.60;1.30;;;6.80;98.20;;;;;;4862993;29;20893;-80
2024/02/27 02:17:02;;;;;;;1.60;1.30;;;6.80;98.20;;;;;;4868522;29;20497;-79
2024/02/27 02:19:30;;;;;;;1.60;1.27;;;6.80;98.20;;;;;;4871093;29;20479;-80
2024/02/27 02:21:58;;;;;;;1.83;1.73;;;6.70;98.20;;;;;;4867043;29;20503;-79
2024/02/27 02:24:29;;;;;;;1.57;1.20;;;6.70;98.20;;;;;;4870135;29;20566;-80
2024/02/27 02:26:58;;;;;;;1.60;1.20;;;6.70;98.20;;;;;;4871739;29;20481;-79
2024/02/27 02:29:25;;;;;;;1.53;1.20;;;6.70;98.20;;;;;;4880122;29;21017;-80
2024/02/27 02:31:52;;;;;;;1.60;1.27;;;6.70;98.20;;;;;;4863762;29;21027;-80
2024/02/27 02:34:18;;;;;;;1.60;1.40;;;6.70;98.20;;;;;;4873435;29;20985;-80
2024/02/27 02:36:45;;;;;;;1.60;1.30;;;6.70;98.20;;;;;;4863604;29;21008;-80
2024/02/27 02:39:13;;;;;;;1.60;1.30;;;6.70;98.20;;;;;;4875877;29;20467;-80
2024/02/27 02:41:40;;;;;;;1.60;1.20;;;6.70;98.20;;;;;;4859608;29;20841;-79
2024/02/27 02:44:07;;;;;;;1.57;1.30;;;6.70;98.20;;;;;;4872847;29;20503;-79
2024/02/27 02:46:35;;;;;;;1.60;1.30;;;6.70;98.20;;;;;;4859779;29;20854;-80
2024/02/27 02:49:02;;;;;;;2.07;1.80;;;6.70;98.20;;;;;;4875415;29;20571;-79
2024/02/27 02:51:30;;;;;;;1.60;1.30;;;6.70;98.20;;;;;;4854705;29;20495;-79
2024/02/27 02:53:57;;;;;;;1.70;1.30;;;6.70;98.20;;;;;;4863381;29;20480;-79
2024/02/27 02:56:25;;;;;;;1.60;1.30;;;6.70;98.20;;;;;;4850982;29;20489;-80
2024/02/27 02:58:52;;;;;;;1.60;1.50;;;6.60;98.20;;;;;;4876936;29;20491;-80
2024/02/27 03:01:18;;;;;;;1.90;1.70;;;6.60;98.20;;;;;;4854007;29;20469;-80
2024/02/27 03:03:45;;;;;;;1.70;1.40;;;6.60;98.20;;;;;;4879294;29;20499;-80
2024/02/27 03:06:12;;;;;;;1.60;1.30;;;6.60;98.20;;;;;;4854203;29;21027;-80
2024/02/27 03:08:39;;;;;;;1.60;1.30;;;6.60;98.20;;;;;;4880234;29;21044;-80
2024/02/27 03:11:05;;;;;;;1.60;1.30;;;6.60;98.20;;;;;;4852094;29;21476;-80
2024/02/27 03:13:33;;;;;;;1.60;1.20;;;6.50;98.20;;;;;;4880983;29;20903;-80
2024/02/27 03:16:00;;;;;;;1.60;1.27;;;6.60;98.20;;;;;;4850995;29;20481;-80
2024/02/27 03:18:28;;;;;;;1.60;1.20;;;6.60;98.20;;;;;;4881990;29;20517;-80
2024/02/27 03:20:55;;;;;;;1.60;1.30;;;6.50;98.20;;;;;;4847678;29;21166;-81
2024/02/27 03:23:21;;;;;;;1.60;1.40;;;6.50;98.20;;;;;;4883300;29;21010;-80
2024/02/27 03:25:48;;;;;;;1.57;1.20;;;6.50;98.20;;;;;;4848816;29;20531;-80
2024/02/27 03:28:15;;;;;;;1.60;1.40;;;6.50;98.20;;;;;;4885617;29;21028;-80
2024/02/27 03:30:43;;;;;;;1.60;1.30;;;6.50;98.20;;;;;;4857736;29;20479;-80
2024/02/27 03:33:10;;;;;;;1.60;1.40;;;6.40;98.20;;;;;;4877774;29;20487;-79
2024/02/27 03:35:37;;;;;;;1.60;1.20;;;6.40;98.20;;;;;;4858091;29;20832;-80
2024/02/27 03:38:04;;;;;;;1.60;1.30;;;6.40;98.20;;;;;;4877735;29;20540;-80
2024/02/27 03:40:31;;;;;;;1.60;1.30;;;6.40;98.20;;;;;;4857498;29;20921;-80
2024/02/27 03:42:57;;;;;;;1.60;1.30;;;6.40;98.20;;;;;;4877171;29;20485;-80
2024/02/27 03:45:24;;;;;;;1.60;1.40;;;6.30;98.20;;;;;;4857149;29;20471;-80
2024/02/27 03:47:52;;;;;;;1.73;1.63;;;6.30;98.20;;;;;;4874423;29;20861;-80
2024/02/27 03:50:19;;;;;;;1.60;1.30;;;6.30;98.20;;;;;;4858498;29;20476;-80
2024/02/27 03:52:46;;;;;;;3.00;2.80;;;6.30;98.20;;;;;;4875962;29;20485;-80
2024/02/27 03:55:13;;;;;;;1.60;1.20;;;6.30;98.20;;;;;;4858056;29;20541;-80
2024/02/27 03:57:40;;;;;;;1.60;1.40;;;6.30;98.20;;;;;;4875640;29;20497;-79
2024/02/27 04:00:09;;;;;;;1.60;1.30;;;6.30;98.20;;;;;;4859178;29;20727;-80
2024/02/27 04:02:35;;;;;;;1.60;1.30;;;6.30;98.20;;;;;;4873006;29;21039;-80
2024/02/27 04:05:04;;;;;;;2.37;2.17;;;6.30;98.20;;;;;;4860506;29;20486;-80
2024/02/27 04:07:31;;;;;;;1.60;1.30;;;6.30;98.20;;;;;;4873011;29;20500;-80
2024/02/27 04:09:57;;;;;;;1.60;1.30;;;6.30;98.20;;;;;;4861632;29;20501;-80
2024/02/27 04:12:24;;;;;;;1.60;1.30;;;6.30;98.20;;;;;;4859857;29;20556;-80
2024/02/27 04:14:51;;;;;;;1.60;1.30;;;6.30;98.20;;;;;;4858514;29;20490;-80
2024/02/27 04:17:19;;;;;;;1.60;1.40;;;6.30;98.20;;;;;;4869278;29;20576;-80
2024/02/27 04:19:46;;;;;;;1.60;1.30;;;6.30;98.20;;;;;;4864471;29;20519;-80
2024/02/27 04:22:14;;;;;;;1.60;1.30;;;6.20;98.20;;;;;;4868163;29;20493;-80
2024/02/27 04:24:41;;;;;;;1.60;1.30;;;6.20;98.20;;;;;;4864357;29;20496;-80
2024/02/27 04:27:07;;;;;;;1.60;1.27;;;6.20;98.20;;;;;;4867411;29;20589;-80
2024/02/27 04:29:34;;;;;;;1.60;1.40;;;6.20;98.20;;;;;;4866263;29;20496;-80
2024/02/27 04:32:01;;;;;;;1.60;1.40;;;6.20;98.20;;;;;;4867138;29;20496;-80
2024/02/27 04:34:28;;;;;;;1.60;1.27;;;6.20;98.20;;;;;;4867563;29;20470;-80
2024/02/27 04:36:56;;;;;;;1.60;1.30;;;6.20;98.20;;;;;;4864663;29;21043;-80
2024/02/27 04:39:24;;;;;;;1.60;1.20;;;6.20;98.20;;;;;;4869323;29;20542;-80
2024/02/27 04:41:51;;;;;;;4.60;2.90;;;6.20;98.20;;;;;;4852162;29;20494;-80
2024/02/27 04:44:20;;;;;;;1.60;1.27;;;6.20;98.20;;;;;;4862731;29;20602;-80
2024/02/27 04:46:47;;;;;;;1.63;1.40;;;6.10;98.20;;;;;;4860916;29;20489;-80
2024/02/27 07:07:55;;;;;;;1.60;1.30;;;6.10;98.20;;;;;;4881953;29;20944;-82
2024/02/27 07:10:22;;;;;;;1.60;1.30;;;6.00;98.20;;;;;;4880746;29;20489;-84
2024/02/27 07:12:48;;;;;;;1.60;1.20;;;6.10;98.20;;;;;;4891918;29;20485;-82
2024/02/27 07:15:15;;;;;;;1.60;1.30;;;6.10;98.20;;;;;;4877837;29;20551;-81
2024/02/27 07:17:42;;;;;;;1.60;1.40;;;6.10;98.20;;;;;;4867794;29;20562;-82
2024/02/27 07:20:11;;;;;;;1.60;1.30;;;6.20;98.20;;;;;;4862515;29;20475;-82
2024/02/27 07:22:37;;;;;;;1.60;1.40;;;6.20;98.20;;;;;;4867176;29;20510;-82
2024/02/27 07:25:08;;;;;;;1.57;1.20;;;6.30;98.20;;;;;;4866769;29;20495;-82
2024/02/27 07:27:35;;;;;;;1.60;1.30;;;6.30;98.20;;;;;;4871479;29;20594;-83
2024/02/27 07:30:04;;;;;;;1.60;1.40;;;6.30;98.20;;;;;;4869747;29;20498;-83
2024/02/27 07:32:31;;;;;;;1.60;1.30;;;6.40;98.20;;;;;;4872574;29;20486;-83
2024/02/27 07:34:57;;;;;;;1.60;1.20;;;6.50;98.20;;;;;;4870844;29;20539;-81
2024/02/27 07:37:25;;;;;;;1.60;1.30;;;6.60;98.20;;;;;;4876658;29;20482;-82
2024/02/27 07:39:51;;;;;;;1.60;1.37;;;6.70;98.20;;;;;;4870654;29;20540;-82
2024/02/27 07:42:22;;;;;;;1.60;1.20;;;6.80;98.20;;;;;;4865996;29;20589;-82
2024/02/27 07:44:49;;;;;;;1.60;1.30;;;6.90;98.20;;;;;;4862815;29;20495;-82
2024/02/27 07:47:16;;;;;;;2.60;2.40;;;7.00;98.20;;;;;;4869346;29;20490;-83
2024/02/27 07:49:46;;;;;;;1.60;1.30;;;7.00;98.20;;;;;;4869734;29;20492;-81
2024/02/27 07:52:13;;;;;;;1.60;1.20;;;7.10;98.20;;;;;;4868180;29;21211;-80
2024/02/27 07:54:40;;;;;;;1.60;1.30;;;7.10;98.20;;;;;;4874282;29;20468;-81
2024/02/27 07:57:07;;;;;;;1.60;1.20;;;7.20;98.20;;;;;;4865899;29;20508;-85
2024/02/27 08:00:03;;;;;;;1.60;1.20;;;7.20;98.20;;;;;;4873221;29;21036;-83
2024/02/27 08:02:29;;;;;;;1.60;1.30;;;7.30;98.20;;;;;;4871625;29;20482;-84
2024/02/27 08:04:56;;;;;;;1.73;1.63;;;7.30;98.20;;;;;;4869386;29;20559;-83
2024/02/27 08:07:29;;;;;;;2.93;1.77;;;7.40;98.20;;;;;;4870880;29;20962;-85
2024/02/27 08:09:56;;;;;;;1.60;1.20;;;7.40;98.20;;;;;;4864826;29;20479;-83
2024/02/27 08:12:23;;;;;;;1.60;1.30;;;7.50;98.20;;;;;;4867801;29;20497;-83
2024/02/27 08:14:50;;;;;;;1.60;1.20;;;7.60;98.20;;;;;;4869465;29;20459;-82
2024/02/27 08:17:18;;;;;;;1.60;1.20;;;7.70;98.20;;;;;;4871351;29;20561;-82
2024/02/27 08:19:44;;;;;;;1.60;1.20;;;7.70;98.20;;;;;;4875118;29;20515;-83
2024/02/27 08:22:12;;;;;;;1.60;1.20;;;7.80;98.20;;;;;;4866413;29;20562;-82
2024/02/27 08:24:38;;;;;;;4.17;3.67;;;7.80;98.20;;;;;;4872065;29;20587;-83
2024/02/27 08:27:06;;;;;;;2.20;2.00;;;7.90;98.20;;;;;;4869237;29;20494;-81
2024/02/27 08:29:33;;;;;;;2.33;2.13;;;7.90;98.20;;;;;;4876532;29;20471;-81
2024/02/27 08:31:59;;;;;;;1.60;1.20;;;7.90;98.20;;;;;;4862489;29;20483;-82
2024/02/27 08:34:27;;;;;;;1.60;1.20;;;8.00;98.20;;;;;;4875859;29;20501;-83
2024/02/27 08:36:56;;;;;;;1.60;1.17;;;8.00;98.20;;;;;;4868739;29;20485;-82
2024/02/27 08:39:23;;;;;;;1.60;1.40;;;8.00;98.20;;;;;;4880224;29;20494;-82
2024/02/27 08:41:49;;;;;;;1.60;1.20;;;8.00;98.20;;;;;;4860246;29;20538;-83
2024/02/27 08:44:16;;;;;;;1.60;1.10;;;8.00;98.20;;;;;;4873285;29;20578;-81
2024/02/27 08:46:43;;;;;;;2.10;1.90;;;8.00;98.20;;;;;;4854616;29;20546;-82
2024/02/27 08:49:10;;;;;;;1.60;1.27;;;8.10;98.20;;;;;;4864203;29;20492;-82
2024/02/27 08:51:38;;;;;;;3.20;3.00;;;8.20;98.20;;;;;;4865882;29;20886;-83
2024/02/27 08:54:05;;;;;;;1.57;1.20;;;8.30;98.20;;;;;;4878045;29;20499;-82
2024/02/27 08:56:32;;;;;;;1.63;1.37;;;8.40;98.20;;;;;;4861426;29;20498;-82
2024/02/27 08:58:59;;;;;;;1.60;1.20;;;8.40;98.20;;;;;;4877746;29;20502;-82
2024/02/27 09:01:25;;;;;;;2.37;2.17;;;8.50;98.20;;;;;;4859833;29;20631;-82
2024/02/27 09:03:52;;;;;;;1.60;1.30;;;8.50;98.20;;;;;;4875839;29;21000;-81
2024/02/27 09:06:19;;;;;;;1.60;1.20;;;8.60;98.20;;;;;;4863381;29;20478;-80
2024/02/27 09:08:47;;;;;;;1.60;1.10;;;8.60;98.20;;;;;;4876846;29;23787;-81
2024/02/27 09:11:14;;;;;;;1.57;1.20;;;8.60;98.20;;;;;;4866305;29;20481;-82
2024/02/27 09:13:41;;;;;;;1.60;1.30;;;8.70;98.20;;;;;;4887207;29;20901;-82
2024/02/27 09:16:08;;;;;;;1.60;1.20;;;8.70;98.20;;;;;;4863721;29;20505;-80
2024/02/27 09:18:37;;;;;;;1.60;1.23;;;8.70;98.20;;;;;;4891692;29;20547;-81
2024/02/27 09:21:05;;;;;;;1.60;1.20;;;8.60;98.20;;;;;;4860253;29;20499;-82
2024/02/27 09:23:32;;;;;;;1.90;1.70;;;8.60;98.20;;;;;;4887319;29;20478;-82
2024/02/27 09:26:01;;;;;;;1.60;1.20;;;8.50;98.20;;;;;;4863672;29;20489;-82
2024/02/27 09:28:27;;;;;;;1.60;1.27;;;8.50;98.20;;;;;;4886534;29;20565;-83
2024/02/27 09:30:54;;;;;;;1.60;1.17;;;8.50;98.20;;;;;;4862448;29;20457;-82
2024/02/27 09:33:21;;;;;;;1.60;1.20;;;8.50;98.20;;;;;;4886266;29;20922;-82
2024/02/27 09:35:48;;;;;;;1.60;1.20;;;8.60;98.20;;;;;;4861958;29;20554;-82
2024/02/27 09:38:15;;;;;;;2.23;2.03;;;8.70;98.20;;;;;;4881939;29;20517;-82
2024/02/27 09:40:42;;;;;;;1.60;1.30;;;8.80;98.20;;;;;;4868747;29;20518;-82
2024/02/27 09:43:18;;;;;;;1.57;1.10;;;9.00;98.20;;;;;;4875845;29;20487;-82
2024/02/27 09:45:45;;;;;;;1.60;1.10;;;9.20;98.20;;;;;;4871327;29;20580;-84
2024/02/27 09:48:16;;;;;;;1.50;1.10;;;9.30;98.20;;;;;;4854481;29;20491;-83
2024/02/27 09:50:44;;;;;;;1.57;1.10;;;9.30;98.20;;;;;;4870940;29;20543;-82
2024/02/27 09:53:12;;;;;;;1.57;1.10;;;9.40;98.20;;;;;;4882460;29;20495;-81
2024/02/27 09:55:39;;;;;;;1.60;1.30;;;9.40;98.20;;;;;;4866388;29;20547;-82
2024/02/27 09:58:10;;;;;;;1.60;1.23;;;9.40;98.20;;;;;;4882529;29;20586;-82
2024/02/27 10:00:37;;;;;;;1.60;1.20;;;9.50;98.20;;;;;;4866858;29;20494;-83
2024/02/27 10:03:05;;;;;;;1.60;1.30;;;9.50;98.20;;;;;;4888311;29;20481;-81
2024/02/27 10:05:33;;;;;;;1.57;1.20;;;9.50;98.20;;;;;;4871512;29;20557;-82
2024/02/27 10:08:03;;;;;;;1.57;1.10;;;9.50;98.20;;;;;;4883772;29;20490;-82
2024/02/27 10:10:31;;;;;;;1.60;1.10;;;9.60;98.20;;;;;;4871374;29;20499;-83
2024/02/27 10:12:57;;;;;;;1.73;1.63;;;9.60;98.20;;;;;;4885998;29;20490;-82
2024/02/27 10:15:26;;;;;;;4.03;2.03;;;9.70;98.20;;;;;;4871715;29;20549;-83
2024/02/27 10:17:53;;;;;;;1.53;1.10;;;9.70;98.20;;;;;;4883549;29;20477;-82
2024/02/27 10:20:28;;;;;;;1.70;1.60;;;9.70;98.20;;;;;;4870584;29;20535;-82
2024/02/27 10:22:56;;;;;;;1.60;1.20;;;9.80;98.20;;;;;;4887475;29;20497;-83
2024/02/27 10:25:27;;;;;;;8.47;2.23;;;9.90;98.20;;;;;;4872356;29;20503;-82
2024/02/27 10:27:54;;;;;;;1.60;1.30;;;9.80;98.20;;;;;;4886415;29;20526;-82
2024/02/27 10:30:26;;;;;;;1.60;1.10;;;9.90;98.20;;;;;;4872739;29;20497;-82
2024/02/27 10:32:52;;;;;;;1.60;1.10;;;10.00;98.20;;;;;;4872934;29;20510;-81
2024/02/27 10:35:20;;;;;;;1.60;1.20;;;10.20;98.20;;;;;;4860121;29;20733;-82
2024/02/27 10:37:47;;;;;;;1.60;1.10;;;10.40;98.20;;;;;;4857041;29;20483;-82
2024/02/27 10:40:20;;;;;;;1.60;1.10;;;10.50;98.20;;;;;;4873714;29;20997;-82
2024/02/27 10:42:47;;;;;;;1.60;1.10;;;10.50;98.20;;;;;;4871637;29;21016;-82
2024/02/27 10:45:16;;;;;;;1.53;1.00;;;10.60;98.20;;;;;;4859975;29;20567;-81
2024/02/27 10:47:44;;;;;;;1.70;1.40;;;10.70;98.20;;;;;;4875949;29;20478;-82
2024/02/27 10:50:13;;;;;;;2.83;2.60;;;10.80;98.20;;;;;;4861009;29;20535;-83
2024/02/27 10:52:40;;;;;;;1.57;1.07;;;11.00;98.20;;;;;;4873723;29;20791;-82
2024/02/27 10:55:09;;;;;;;1.60;1.10;;;11.10;98.20;;;;;;4862878;29;20564;-82
2024/02/27 10:57:37;;;;;;;1.60;1.40;;;11.20;98.20;;;;;;4870301;29;20496;-82
2024/02/27 11:00:08;;;;;;;1.60;1.00;;;11.10;98.20;;;;;;4870420;29;20539;-85
2024/02/27 11:02:44;;;;;;;1.63;1.13;;;11.20;98.20;;;;;;4883548;29;20544;-81
2024/02/27 11:05:12;;;;;;;1.57;1.00;;;11.40;98.20;;;;;;4865826;29;20510;-84
2024/02/27 11:07:43;;;;;;;1.60;1.10;;;11.50;98.20;;;;;;4878327;29;20565;-83
2024/02/27 11:10:13;;;;;;;1.60;1.10;;;11.70;98.20;;;;;;4865122;29;20487;-82
2024/02/27 11:12:42;;;;;;;1.60;1.10;;;11.70;98.20;;;;;;4877634;29;20530;-82
2024/02/27 11:15:12;;;;;;;1.60;1.10;;;11.70;98.20;;;;;;4866150;29;20457;-82
2024/02/27 11:17:43;;;;;;;2.37;2.07;;;11.60;98.20;;;;;;4881684;29;20562;-82
2024/02/27 11:20:12;;;;;;;1.70;1.37;;;11.60;98.20;;;;;;4874410;29;20488;-82
2024/02/27 11:22:40;;;;;;;3.53;2.20;;;11.50;98.20;;;;;;4883045;29;20469;-84
2024/02/27 11:25:09;;;;;;;1.60;1.10;;;11.50;98.20;;;;;;4866782;29;20487;-82
2024/02/27 11:27:37;;;;;;;1.60;1.10;;;11.50;98.20;;;;;;4881978;29;20497;-83
2024/02/27 11:30:05;;;;;;;1.60;1.10;;;11.80;98.20;;;;;;4869945;29;20471;-83
2024/02/27 11:32:32;;;;;;;1.60;1.00;;;12.10;98.20;;;;;;4877691;29;20477;-84
2024/02/27 11:35:01;;;;;;;1.80;1.40;;;12.30;98.20;;;;;;4865425;29;20468;-83
2024/02/27 11:37:33;;;;;;;1.60;1.10;;;12.50;98.20;;;;;;4880115;29;20537;-83
2024/02/27 11:40:04;;;;;;;1.60;1.17;;;12.70;98.20;;;;;;4870747;29;20478;-80
2024/02/27 11:42:38;;;;;;;1.60;1.10;;;12.70;98.20;;;;;;4876647;29;20479;-84
2024/02/27 11:45:09;;;;;;;1.60;1.00;;;12.60;98.20;;;;;;4868923;29;21037;-84
2024/02/27 11:47:44;;;;;;;1.80;1.40;;;12.80;98.20;;;;;;4875068;29;20493;-84
2024/02/27 11:50:12;;;;;;;1.60;1.07;;;12.80;98.20;;;;;;4870886;29;20471;-83
2024/02/27 11:52:46;;;;;;;1.57;1.00;;;12.80;98.20;;;;;;4875503;29;20501;-83
2024/02/27 11:55:13;;;;;;;1.57;1.00;;;12.80;98.20;;;;;;4862328;29;20787;-84
2024/02/27 11:57:40;;;;;;;1.93;1.73;;;12.80;98.20;;;;;;4869341;29;21041;-83
2024/02/27 12:00:14;;;;;;;1.60;1.10;;;12.90;98.20;;;;;;4862898;29;20473;-83
2024/02/27 12:02:45;;;;;;;1.57;1.00;;;13.00;98.20;;;;;;4871745;29;20489;-85
2024/02/27 12:05:12;;;;;;;1.60;1.00;;;13.10;98.20;;;;;;4861146;29;20483;-83
2024/02/27 12:07:39;;;;;;;1.60;1.00;;;13.10;98.20;;;;;;4879074;29;20517;-81
2024/02/27 12:10:09;;;;;;;1.57;1.10;;;13.10;98.20;;;;;;4866785;29;20475;-81
2024/02/27 12:12:37;;;;;;;1.60;1.10;;;13.10;98.20;;;;;;4872552;29;20481;-80
2024/02/27 12:15:05;;;;;;;1.60;1.10;;;13.20;98.20;;;;;;4866953;29;20496;-82
2024/02/27 12:17:32;;;;;;;1.50;0.97;;;13.30;98.20;;;;;;4874541;29;20500;-79
2024/02/27 12:19:59;;;;;;;3.67;3.37;;;13.30;98.20;;;;;;4869938;29;20486;-81
2024/02/27 12:22:27;;;;;;;1.57;1.00;;;13.30;98.20;;;;;;4873700;29;20492;-79
2024/02/27 12:24:56;;;;;;;1.53;1.00;;;13.10;98.20;;;;;;4865835;29;20551;-81
2024/02/27 12:27:25;;;;;;;1.57;1.00;;;13.00;98.20;;;;;;4876245;29;20489;-80
2024/02/27 12:29:52;;;;;;;1.60;1.10;;;12.90;98.20;;;;;;4868801;29;20532;-81
2024/02/27 12:32:20;;;;;;;1.60;1.10;;;12.80;98.20;;;;;;4870137;29;20520;-81
2024/02/27 12:34:47;;;;;;;1.53;1.00;;;12.80;98.20;;;;;;4871888;29;20460;-82
2024/02/27 12:37:16;;;;;;;1.70;1.50;;;12.80;98.20;;;;;;4871316;29;20907;-80
2024/02/27 12:39:43;;;;;;;1.57;1.00;;;12.70;98.20;;;;;;4868400;29;21136;-79
2024/02/27 12:42:10;;;;;;;1.60;1.13;;;12.80;98.20;;;;;;4870749;29;20481;-81
2024/02/27 12:44:38;;;;;;;1.57;1.00;;;12.90;98.20;;;;;;4874281;29;20475;-81
2024/02/27 12:47:06;;;;;;;1.60;1.10;;;12.90;98.20;;;;;;4869067;29;20498;-80
2024/02/27 12:49:32;;;;;;;1.60;1.07;;;12.80;98.20;;;;;;4876073;29;20467;-80
2024/02/27 12:52:00;;;;;;;2.30;2.10;;;12.90;98.20;;;;;;4858576;29;20543;-82
2024/02/27 12:54:27;;;;;;;1.60;1.00;;;12.90;98.20;;;;;;4870632;29;20502;-82
2024/02/27 12:56:54;;;;;;;1.60;1.10;;;12.90;98.20;;;;;;4858328;29;20504;-81
2024/02/27 12:59:23;;;;;;;1.50;1.00;;;13.00;98.20;;;;;;4874111;29;20745;-82
2024/02/27 13:01:51;;;;;;;1.60;1.10;;;13.10;98.20;;;;;;4865192;29;20496;-81
2024/02/27 13:04:18;;;;;;;1.60;1.20;;;13.10;98.20;;;;;;4876817;29;20543;-81
2024/02/27 13:06:46;;;;;;;1.60;1.00;;;13.20;98.20;;;;;;4855698;29;20606;-80
2024/02/27 13:09:14;;;;;;;1.60;1.10;;;13.20;98.20;;;;;;4870054;23;20496;-85
2024/02/27 13:12:10;;;;;;;1.57;1.00;;;13.10;98.20;;;;;;4832641;29;20476;-84
2024/02/27 13:14:43;;;;;;;1.60;1.10;;;13.10;98.20;;;;;;4835946;29;20472;-84
2024/02/27 13:17:12;;;;;;;1.57;1.00;;;12.90;98.20;;;;;;4829554;29;20507;-84
2024/02/27 13:19:39;;;;;;;1.60;1.10;;;12.80;98.20;;;;;;4838714;29;20488;-84
2024/02/27 13:22:06;;;;;;;1.60;1.10;;;12.80;98.20;;;;;;4832867;29;20530;-84
2024/02/27 13:24:37;;;;;;;3.70;3.40;;;12.70;98.20;;;;;;4838610;29;20546;-86
2024/02/27 13:27:17;;;;;;;1.50;0.90;;;12.60;98.20;;;;;;4836386;29;21021;-85
2024/02/27 13:29:50;;;;;;;1.50;1.00;;;12.60;98.20;;;;;;4845442;29;20476;-84
2024/02/27 13:32:21;;;;;;;1.60;1.10;;;12.50;98.20;;;;;;4850336;29;20533;-85
2024/02/27 13:34:53;;;;;;;1.60;1.10;;;12.50;98.20;;;;;;4848928;29;20456;-85
2024/02/27 13:45:20;;;;;;;1.60;1.10;;;12.40;98.20;;;;;;4882506;29;20561;-85
2024/02/27 13:48:26;;;;;;;1.60;1.17;;;12.40;98.20;;;;;;4893600;29;20500;-85
2024/02/27 13:51:27;;;;;;;1.50;0.93;;;12.40;98.20;;;;;;4874405;29;20537;-87
2024/02/27 13:53:57;;;;;;;1.53;1.00;;;12.30;98.20;;;;;;4897503;29;20486;-85
2024/02/27 13:56:25;;;;;;;1.60;1.00;;;12.30;98.20;;;;;;4874739;29;20742;-85
2024/02/27 13:58:57;;;;;;;1.50;1.00;;;12.30;98.20;;;;;;4887442;29;20964;-85
2024/02/27 14:01:29;;;;;;;1.60;1.00;;;12.20;98.20;;;;;;4876874;29;20487;-85
2024/02/27 14:04:00;;;;;;;1.60;1.07;;;12.20;98.20;;;;;;4885187;29;20478;-86
2024/02/27 14:07:22;;;;;;;;;;;;;;;;;;;;;
2024/02/27 14:09:52;;;;;;;1.53;1.00;;;12.10;98.20;;;;;;4883017;29;20534;-85
2024/02/27 14:12:26;;;;;;;1.57;1.10;;;12.10;98.20;;;;;;4893967;29;20489;-85
2024/02/27 14:15:20;;;;;;;1.60;1.03;;;12.10;98.20;;;;;;4892206;29;20480;-86
2024/02/27 14:18:36;;;;;;;1.53;1.03;;;12.00;98.20;;;;;;4899603;29;20490;-86
2024/02/27 17:13:30;;;;;;;1.60;1.33;;;7.90;98.20;;;;;;4879746;23;20924;-84
2024/02/27 17:16:23;;;;;;;1.60;1.30;;;7.90;98.20;;;;;;4855145;29;20499;-84
2024/02/27 17:22:23;;;;;;;1.60;1.30;;;7.70;98.20;;;;;;4778617;29;20538;-83
2024/02/27 17:30:32;;;;;;;1.60;1.20;;;7.50;98.20;;;;;;4879697;29;20558;-85
2024/02/27 17:43:39;;;;;;;;;;;;;;;;;;;;;
2024/02/27 17:47:00;;;;;;;1.60;1.30;;;7.00;98.20;;;;;;4770542;29;20522;-84
2024/02/27 17:49:35;;;;;;;1.60;1.20;;;6.90;98.20;;;;;;4957897;23;20515;-82
2024/02/27 17:52:03;;;;;;;1.60;1.30;;;7.00;98.20;;;;;;4890482;29;20495;-80
2024/02/27 17:54:30;;;;;;;1.60;1.30;;;7.10;98.20;;;;;;4898505;29;20891;-79
2024/02/27 17:56:59;;;;;;;1.60;1.30;;;7.10;98.20;;;;;;4886836;29;20477;-79
2024/02/27 18:03:20;;;;;;;1.60;1.20;;;7.10;98.20;;;;;;4852023;29;20480;-85
2024/02/27 18:10:00;;;;;;;1.60;1.30;;;6.90;98.20;;;;;;4792816;29;20499;-82
2024/02/27 18:19:56;;;;;;;1.57;1.30;;;6.60;98.20;;;;;;4770290;29;20488;-86
2024/02/27 18:44:54;;;;;;;1.60;1.30;;;6.10;98.20;;;;;;4696729;30;21206;-84
2024/02/27 18:47:45;;;;;;;1.60;1.30;;;6.00;98.20;;;;;;4764530;30;20952;-82
2024/02/27 18:53:51;;;;;;;1.60;1.30;;;6.00;98.20;;;;;;4693604;30;20472;-83
2024/02/27 18:56:26;;;;;;;1.60;1.50;;;5.90;98.20;;;;;;4727935;30;20535;-83
2024/02/27 18:58:53;;;;;;;1.60;1.30;;;5.90;98.20;;;;;;4835704;29;20483;-84
2024/02/27 19:02:12;;;;;;;1.60;1.30;;;5.80;98.20;;;;;;4864618;29;20497;-83
2024/02/27 19:04:56;;;;;;;1.60;1.40;;;5.70;98.20;;;;;;4794189;29;20487;-83
2024/02/27 19:07:43;;;;;;;1.60;1.50;;;5.70;98.20;;;;;;4861387;29;20582;-84
2024/02/27 19:13:50;;;;;;;1.60;1.50;;;5.60;98.20;;;;;;4826676;29;20929;-83
2024/02/27 19:16:20;;;;;;;1.60;1.30;;;5.60;98.20;;;;;;4850068;29;20865;-83
2024/02/27 19:19:18;;;;;;;1.60;1.43;;;5.50;98.20;;;;;;4858168;29;20491;-83
2024/02/27 19:21:59;;;;;;;1.60;1.30;;;5.40;98.20;;;;;;4870735;29;20480;-83
2024/02/27 19:28:43;;;;;;;;;;;;;;;;;;;;;
2024/02/27 19:31:57;;;;;;;1.60;1.47;;;5.30;98.20;;;;;;4739797;30;20478;-82
2024/02/27 19:34:40;;;;;;;1.70;1.60;;;5.20;98.20;;;;;;4728669;30;20523;-83
2024/02/27 19:37:40;;;;;;;1.60;1.40;;;5.10;98.20;;;;;;4747361;29;20519;-82
2024/02/27 19:40:10;;;;;;;1.60;1.47;;;5.10;98.20;;;;;;4847810;29;20463;-81